sensor_id;sensor_type;location;lat;lon;timestamp;P1;durP1;ratioP1;P2;durP2;ratioP2
49101;SDS011;34913;47.520;19.186;2023-04-24T00:01:14;6.00;;;4.78;;
49101;SDS011;34913;47.520;19.186;2023-04-24T00:03:42;7.43;;;4.68;;
49101;SDS011;34913;47.520;19.186;2023-04-24T00:06:07;6.95;;;4.82;;
49101;SDS011;34913;47.520;19.186;2023-04-24T00:08:36;4.82;;;4.32;;
49101;SDS011;34913;47.520;19.186;2023-04-24T00:11:01;8.10;;;4.50;;
49101;SDS011;34913;47.520;19.186;2023-04-24T00:13:27;7.60;;;4.55;;
49101;SDS011;34913;47.520;19.186;2023-04-24T00:15:53;6.70;;;4.43;;
49101;SDS011;34913;47.520;19.186;2023-04-24T00:18:19;8.50;;;4.82;;
49101;SDS011;34913;47.520;19.186;2023-04-24T00:20:45;8.10;;;4.70;;
49101;SDS011;34913;47.520;19.186;2023-04-24T00:23:11;7.25;;;4.50;;
49101;SDS011;34913;47.520;19.186;2023-04-24T00:25:37;7.18;;;4.60;;
49101;SDS011;34913;47.520;19.186;2023-04-24T00:28:02;7.55;;;4.18;;
49101;SDS011;34913;47.520;19.186;2023-04-24T00:30:28;8.07;;;4.40;;
49101;SDS011;34913;47.520;19.186;2023-04-24T00:32:53;6.43;;;4.53;;
49101;SDS011;34913;47.520;19.186;2023-04-24T00:35:19;8.75;;;4.88;;
49101;SDS011;34913;47.520;19.186;2023-04-24T00:37:45;7.57;;;4.70;;
49101;SDS011;34913;47.520;19.186;2023-04-24T00:40:11;7.15;;;4.72;;
49101;SDS011;34913;47.520;19.186;2023-04-24T00:42:37;6.00;;;4.55;;
49101;SDS011;34913;47.520;19.186;2023-04-24T00:45:03;7.68;;;4.20;;
49101;SDS011;34913;47.520;19.186;2023-04-24T00:47:30;7.05;;;4.40;;
49101;SDS011;34913;47.520;19.186;2023-04-24T00:49:56;5.43;;;4.38;;
49101;SDS011;34913;47.520;19.186;2023-04-24T00:52:21;7.07;;;4.78;;
49101;SDS011;34913;47.520;19.186;2023-04-24T00:54:49;6.07;;;4.60;;
49101;SDS011;34913;47.520;19.186;2023-04-24T00:57:15;7.85;;;4.75;;
49101;SDS011;34913;47.520;19.186;2023-04-24T00:59:41;6.68;;;4.55;;
49101;SDS011;34913;47.520;19.186;2023-04-24T01:02:08;9.77;;;5.00;;
49101;SDS011;34913;47.520;19.186;2023-04-24T01:04:35;5.78;;;4.63;;
49101;SDS011;34913;47.520;19.186;2023-04-24T01:07:01;6.40;;;4.80;;
49101;SDS011;34913;47.520;19.186;2023-04-24T01:09:27;8.20;;;5.03;;
49101;SDS011;34913;47.520;19.186;2023-04-24T01:11:52;6.63;;;4.90;;
49101;SDS011;34913;47.520;19.186;2023-04-24T01:14:18;9.25;;;4.63;;
49101;SDS011;34913;47.520;19.186;2023-04-24T01:16:45;6.57;;;4.55;;
49101;SDS011;34913;47.520;19.186;2023-04-24T01:19:10;7.50;;;4.55;;
49101;SDS011;34913;47.520;19.186;2023-04-24T01:21:37;7.70;;;4.82;;
49101;SDS011;34913;47.520;19.186;2023-04-24T01:24:04;7.05;;;4.38;;
49101;SDS011;34913;47.520;19.186;2023-04-24T01:26:30;9.10;;;5.40;;
49101;SDS011;34913;47.520;19.186;2023-04-24T01:28:56;7.18;;;4.50;;
49101;SDS011;34913;47.520;19.186;2023-04-24T01:31:22;10.13;;;4.72;;
49101;SDS011;34913;47.520;19.186;2023-04-24T01:33:48;5.97;;;4.82;;
49101;SDS011;34913;47.520;19.186;2023-04-24T01:36:15;6.40;;;4.82;;
49101;SDS011;34913;47.520;19.186;2023-04-24T01:38:41;9.50;;;4.93;;
49101;SDS011;34913;47.520;19.186;2023-04-24T01:41:07;9.15;;;5.45;;
49101;SDS011;34913;47.520;19.186;2023-04-24T01:43:32;6.47;;;4.70;;
49101;SDS011;34913;47.520;19.186;2023-04-24T01:45:58;13.75;;;4.78;;
49101;SDS011;34913;47.520;19.186;2023-04-24T01:48:23;10.45;;;4.55;;
49101;SDS011;34913;47.520;19.186;2023-04-24T01:50:49;8.90;;;4.97;;
49101;SDS011;34913;47.520;19.186;2023-04-24T01:53:14;6.53;;;4.85;;
49101;SDS011;34913;47.520;19.186;2023-04-24T01:55:40;7.15;;;5.00;;
49101;SDS011;34913;47.520;19.186;2023-04-24T01:58:06;9.23;;;5.22;;
49101;SDS011;34913;47.520;19.186;2023-04-24T02:00:31;6.32;;;4.90;;
49101;SDS011;34913;47.520;19.186;2023-04-24T02:02:57;6.90;;;4.70;;
49101;SDS011;34913;47.520;19.186;2023-04-24T02:05:22;9.80;;;5.22;;
49101;SDS011;34913;47.520;19.186;2023-04-24T02:07:48;6.93;;;4.90;;
49101;SDS011;34913;47.520;19.186;2023-04-24T02:10:13;9.27;;;5.78;;
49101;SDS011;34913;47.520;19.186;2023-04-24T02:12:39;8.70;;;5.00;;
49101;SDS011;34913;47.520;19.186;2023-04-24T02:15:04;8.05;;;4.75;;
49101;SDS011;34913;47.520;19.186;2023-04-24T02:17:31;9.00;;;5.22;;
49101;SDS011;34913;47.520;19.186;2023-04-24T02:19:56;11.75;;;5.45;;
49101;SDS011;34913;47.520;19.186;2023-04-24T02:22:22;9.80;;;5.63;;
49101;SDS011;34913;47.520;19.186;2023-04-24T02:24:47;8.32;;;5.80;;
49101;SDS011;34913;47.520;19.186;2023-04-24T02:27:13;8.30;;;5.85;;
49101;SDS011;34913;47.520;19.186;2023-04-24T02:29:38;9.30;;;6.50;;
49101;SDS011;34913;47.520;19.186;2023-04-24T02:32:04;10.02;;;6.40;;
49101;SDS011;34913;47.520;19.186;2023-04-24T02:34:29;10.23;;;6.70;;
49101;SDS011;34913;47.520;19.186;2023-04-24T02:36:55;10.48;;;6.20;;
49101;SDS011;34913;47.520;19.186;2023-04-24T02:39:20;9.43;;;6.18;;
49101;SDS011;34913;47.520;19.186;2023-04-24T02:41:46;9.77;;;6.30;;
49101;SDS011;34913;47.520;19.186;2023-04-24T02:44:11;9.05;;;6.25;;
49101;SDS011;34913;47.520;19.186;2023-04-24T02:46:37;9.15;;;6.68;;
49101;SDS011;34913;47.520;19.186;2023-04-24T02:49:02;12.35;;;6.75;;
49101;SDS011;34913;47.520;19.186;2023-04-24T02:51:28;14.88;;;6.45;;
49101;SDS011;34913;47.520;19.186;2023-04-24T02:53:53;8.85;;;6.40;;
49101;SDS011;34913;47.520;19.186;2023-04-24T02:56:19;8.57;;;6.35;;
49101;SDS011;34913;47.520;19.186;2023-04-24T02:58:45;12.35;;;6.63;;
49101;SDS011;34913;47.520;19.186;2023-04-24T03:01:10;11.55;;;6.65;;
49101;SDS011;34913;47.520;19.186;2023-04-24T03:03:36;8.48;;;6.57;;
49101;SDS011;34913;47.520;19.186;2023-04-24T03:06:02;9.95;;;6.57;;
49101;SDS011;34913;47.520;19.186;2023-04-24T03:08:30;9.05;;;7.18;;
49101;SDS011;34913;47.520;19.186;2023-04-24T03:10:56;11.77;;;6.95;;
49101;SDS011;34913;47.520;19.186;2023-04-24T03:13:22;9.45;;;6.97;;
49101;SDS011;34913;47.520;19.186;2023-04-24T03:15:47;10.13;;;7.53;;
49101;SDS011;34913;47.520;19.186;2023-04-24T03:18:13;11.55;;;7.53;;
49101;SDS011;34913;47.520;19.186;2023-04-24T03:20:38;12.88;;;7.57;;
49101;SDS011;34913;47.520;19.186;2023-04-24T03:23:04;12.43;;;8.55;;
49101;SDS011;34913;47.520;19.186;2023-04-24T03:25:29;10.70;;;8.40;;
49101;SDS011;34913;47.520;19.186;2023-04-24T03:27:55;10.75;;;8.32;;
49101;SDS011;34913;47.520;19.186;2023-04-24T03:30:20;11.68;;;7.70;;
49101;SDS011;34913;47.520;19.186;2023-04-24T03:32:46;8.98;;;7.35;;
49101;SDS011;34913;47.520;19.186;2023-04-24T03:35:11;10.52;;;7.72;;
49101;SDS011;34913;47.520;19.186;2023-04-24T03:37:37;11.55;;;7.93;;
49101;SDS011;34913;47.520;19.186;2023-04-24T03:40:02;10.15;;;7.75;;
49101;SDS011;34913;47.520;19.186;2023-04-24T03:42:28;12.25;;;8.02;;
49101;SDS011;34913;47.520;19.186;2023-04-24T03:44:54;9.65;;;7.75;;
49101;SDS011;34913;47.520;19.186;2023-04-24T03:47:19;8.63;;;7.20;;
49101;SDS011;34913;47.520;19.186;2023-04-24T03:49:44;10.13;;;7.22;;
49101;SDS011;34913;47.520;19.186;2023-04-24T03:52:10;10.05;;;8.20;;
49101;SDS011;34913;47.520;19.186;2023-04-24T03:54:35;9.73;;;7.88;;
49101;SDS011;34913;47.520;19.186;2023-04-24T03:57:01;10.55;;;8.55;;
49101;SDS011;34913;47.520;19.186;2023-04-24T03:59:26;11.88;;;8.00;;
49101;SDS011;34913;47.520;19.186;2023-04-24T04:01:52;9.73;;;7.53;;
49101;SDS011;34913;47.520;19.186;2023-04-24T04:04:17;10.55;;;7.78;;
49101;SDS011;34913;47.520;19.186;2023-04-24T04:06:43;10.23;;;7.10;;
49101;SDS011;34913;47.520;19.186;2023-04-24T04:09:09;11.15;;;6.90;;
49101;SDS011;34913;47.520;19.186;2023-04-24T04:11:35;8.85;;;6.78;;
49101;SDS011;34913;47.520;19.186;2023-04-24T04:14:00;11.43;;;7.65;;
49101;SDS011;34913;47.520;19.186;2023-04-24T04:16:26;8.30;;;7.40;;
49101;SDS011;34913;47.520;19.186;2023-04-24T04:18:51;7.60;;;6.80;;
49101;SDS011;34913;47.520;19.186;2023-04-24T04:21:17;9.13;;;6.95;;
49101;SDS011;34913;47.520;19.186;2023-04-24T04:23:42;10.10;;;7.57;;
49101;SDS011;34913;47.520;19.186;2023-04-24T04:26:08;8.25;;;7.32;;
49101;SDS011;34913;47.520;19.186;2023-04-24T04:28:34;8.88;;;7.25;;
49101;SDS011;34913;47.520;19.186;2023-04-24T04:30:59;14.68;;;7.55;;
49101;SDS011;34913;47.520;19.186;2023-04-24T04:33:26;11.18;;;7.65;;
49101;SDS011;34913;47.520;19.186;2023-04-24T04:35:51;9.50;;;7.55;;
49101;SDS011;34913;47.520;19.186;2023-04-24T04:38:18;12.35;;;7.60;;
49101;SDS011;34913;47.520;19.186;2023-04-24T04:40:44;12.20;;;7.32;;
49101;SDS011;34913;47.520;19.186;2023-04-24T04:43:10;10.95;;;8.00;;
49101;SDS011;34913;47.520;19.186;2023-04-24T04:45:36;10.27;;;7.38;;
49101;SDS011;34913;47.520;19.186;2023-04-24T04:48:03;9.73;;;7.03;;
49101;SDS011;34913;47.520;19.186;2023-04-24T04:50:29;11.50;;;7.30;;
49101;SDS011;34913;47.520;19.186;2023-04-24T04:52:55;9.98;;;7.50;;
49101;SDS011;34913;47.520;19.186;2023-04-24T04:55:20;9.73;;;7.53;;
49101;SDS011;34913;47.520;19.186;2023-04-24T04:57:46;10.40;;;7.50;;
49101;SDS011;34913;47.520;19.186;2023-04-24T05:00:12;10.95;;;7.22;;
49101;SDS011;34913;47.520;19.186;2023-04-24T05:02:38;10.38;;;7.63;;
49101;SDS011;34913;47.520;19.186;2023-04-24T05:05:04;9.50;;;6.97;;
49101;SDS011;34913;47.520;19.186;2023-04-24T05:07:31;11.80;;;7.63;;
49101;SDS011;34913;47.520;19.186;2023-04-24T05:09:56;8.30;;;6.75;;
49101;SDS011;34913;47.520;19.186;2023-04-24T05:12:22;9.25;;;6.97;;
49101;SDS011;34913;47.520;19.186;2023-04-24T05:14:47;11.65;;;6.78;;
49101;SDS011;34913;47.520;19.186;2023-04-24T05:17:13;8.98;;;6.88;;
49101;SDS011;34913;47.520;19.186;2023-04-24T05:19:38;11.13;;;7.43;;
49101;SDS011;34913;47.520;19.186;2023-04-24T05:22:04;9.32;;;7.00;;
49101;SDS011;34913;47.520;19.186;2023-04-24T05:24:32;8.65;;;6.97;;
49101;SDS011;34913;47.520;19.186;2023-04-24T05:26:58;11.32;;;7.10;;
49101;SDS011;34913;47.520;19.186;2023-04-24T05:29:24;10.45;;;7.18;;
49101;SDS011;34913;47.520;19.186;2023-04-24T05:31:51;8.88;;;7.15;;
49101;SDS011;34913;47.520;19.186;2023-04-24T05:34:16;9.50;;;7.47;;
49101;SDS011;34913;47.520;19.186;2023-04-24T05:36:42;9.35;;;6.93;;
49101;SDS011;34913;47.520;19.186;2023-04-24T05:39:07;10.23;;;7.07;;
49101;SDS011;34913;47.520;19.186;2023-04-24T05:41:33;11.73;;;7.25;;
49101;SDS011;34913;47.520;19.186;2023-04-24T05:43:59;11.02;;;7.13;;
49101;SDS011;34913;47.520;19.186;2023-04-24T05:46:24;10.50;;;6.93;;
49101;SDS011;34913;47.520;19.186;2023-04-24T05:48:50;12.43;;;7.30;;
49101;SDS011;34913;47.520;19.186;2023-04-24T05:51:15;7.57;;;6.70;;
49101;SDS011;34913;47.520;19.186;2023-04-24T05:53:41;13.00;;;7.35;;
49101;SDS011;34913;47.520;19.186;2023-04-24T05:56:06;8.20;;;6.78;;
49101;SDS011;34913;47.520;19.186;2023-04-24T05:58:32;12.45;;;7.05;;
49101;SDS011;34913;47.520;19.186;2023-04-24T06:00:57;9.00;;;6.57;;
49101;SDS011;34913;47.520;19.186;2023-04-24T06:03:23;11.18;;;7.00;;
49101;SDS011;34913;47.520;19.186;2023-04-24T06:05:50;8.77;;;7.18;;
49101;SDS011;34913;47.520;19.186;2023-04-24T06:08:16;10.18;;;7.55;;
49101;SDS011;34913;47.520;19.186;2023-04-24T06:10:41;10.45;;;7.00;;
49101;SDS011;34913;47.520;19.186;2023-04-24T06:13:07;12.02;;;7.20;;
49101;SDS011;34913;47.520;19.186;2023-04-24T06:15:33;9.15;;;7.45;;
49101;SDS011;34913;47.520;19.186;2023-04-24T06:17:58;10.60;;;6.80;;
49101;SDS011;34913;47.520;19.186;2023-04-24T06:20:24;9.23;;;7.13;;
49101;SDS011;34913;47.520;19.186;2023-04-24T06:22:50;11.18;;;7.40;;
49101;SDS011;34913;47.520;19.186;2023-04-24T06:25:15;8.57;;;7.10;;
49101;SDS011;34913;47.520;19.186;2023-04-24T06:27:41;10.80;;;7.07;;
49101;SDS011;34913;47.520;19.186;2023-04-24T06:30:06;11.52;;;7.05;;
49101;SDS011;34913;47.520;19.186;2023-04-24T06:32:32;8.45;;;6.80;;
49101;SDS011;34913;47.520;19.186;2023-04-24T06:34:58;9.80;;;6.88;;
49101;SDS011;34913;47.520;19.186;2023-04-24T06:37:23;8.20;;;6.40;;
49101;SDS011;34913;47.520;19.186;2023-04-24T06:39:49;7.80;;;6.10;;
49101;SDS011;34913;47.520;19.186;2023-04-24T06:42:14;10.30;;;5.78;;
49101;SDS011;34913;47.520;19.186;2023-04-24T06:44:40;10.20;;;6.18;;
49101;SDS011;34913;47.520;19.186;2023-04-24T06:47:09;9.95;;;6.68;;
49101;SDS011;34913;47.520;19.186;2023-04-24T06:49:36;8.15;;;6.78;;
49101;SDS011;34913;47.520;19.186;2023-04-24T06:52:02;9.85;;;6.55;;
49101;SDS011;34913;47.520;19.186;2023-04-24T06:54:28;10.77;;;6.88;;
49101;SDS011;34913;47.520;19.186;2023-04-24T06:56:54;8.80;;;6.78;;
49101;SDS011;34913;47.520;19.186;2023-04-24T06:59:20;9.60;;;7.50;;
49101;SDS011;34913;47.520;19.186;2023-04-24T07:01:45;10.48;;;7.72;;
49101;SDS011;34913;47.520;19.186;2023-04-24T07:04:11;10.93;;;8.07;;
49101;SDS011;34913;47.520;19.186;2023-04-24T07:06:38;10.52;;;8.10;;
49101;SDS011;34913;47.520;19.186;2023-04-24T07:09:04;9.05;;;8.10;;
49101;SDS011;34913;47.520;19.186;2023-04-24T07:11:30;10.73;;;8.10;;
49101;SDS011;34913;47.520;19.186;2023-04-24T07:13:55;9.88;;;8.38;;
49101;SDS011;34913;47.520;19.186;2023-04-24T07:16:21;12.93;;;8.80;;
49101;SDS011;34913;47.520;19.186;2023-04-24T07:18:46;9.38;;;8.30;;
49101;SDS011;34913;47.520;19.186;2023-04-24T07:21:12;12.57;;;8.18;;
49101;SDS011;34913;47.520;19.186;2023-04-24T07:23:37;9.00;;;8.02;;
49101;SDS011;34913;47.520;19.186;2023-04-24T07:26:03;11.38;;;8.80;;
49101;SDS011;34913;47.520;19.186;2023-04-24T07:28:29;10.15;;;7.82;;
49101;SDS011;34913;47.520;19.186;2023-04-24T07:30:57;9.80;;;7.40;;
49101;SDS011;34913;47.520;19.186;2023-04-24T07:33:24;9.55;;;8.35;;
49101;SDS011;34913;47.520;19.186;2023-04-24T07:35:50;12.68;;;8.75;;
49101;SDS011;34913;47.520;19.186;2023-04-24T07:38:16;12.63;;;9.15;;
49101;SDS011;34913;47.520;19.186;2023-04-24T07:40:45;16.67;;;8.90;;
49101;SDS011;34913;47.520;19.186;2023-04-24T07:43:10;15.55;;;9.98;;
49101;SDS011;34913;47.520;19.186;2023-04-24T07:45:36;12.18;;;8.48;;
49101;SDS011;34913;47.520;19.186;2023-04-24T07:48:02;13.82;;;8.25;;
49101;SDS011;34913;47.520;19.186;2023-04-24T07:50:28;14.18;;;8.88;;
49101;SDS011;34913;47.520;19.186;2023-04-24T07:52:54;14.63;;;8.73;;
49101;SDS011;34913;47.520;19.186;2023-04-24T07:55:19;14.45;;;8.88;;
49101;SDS011;34913;47.520;19.186;2023-04-24T07:57:45;11.70;;;9.32;;
49101;SDS011;34913;47.520;19.186;2023-04-24T08:00:10;10.93;;;9.07;;
49101;SDS011;34913;47.520;19.186;2023-04-24T08:02:36;13.07;;;9.40;;
49101;SDS011;34913;47.520;19.186;2023-04-24T08:05:01;14.32;;;9.45;;
49101;SDS011;34913;47.520;19.186;2023-04-24T08:07:28;11.88;;;9.50;;
49101;SDS011;34913;47.520;19.186;2023-04-24T08:09:54;11.82;;;8.85;;
49101;SDS011;34913;47.520;19.186;2023-04-24T08:12:19;16.67;;;9.32;;
49101;SDS011;34913;47.520;19.186;2023-04-24T08:14:45;10.18;;;8.98;;
49101;SDS011;34913;47.520;19.186;2023-04-24T08:17:10;10.55;;;8.38;;
49101;SDS011;34913;47.520;19.186;2023-04-24T08:19:35;10.48;;;8.20;;
49101;SDS011;34913;47.520;19.186;2023-04-24T08:22:01;16.92;;;8.75;;
49101;SDS011;34913;47.520;19.186;2023-04-24T08:24:27;12.38;;;8.95;;
49101;SDS011;34913;47.520;19.186;2023-04-24T08:26:53;8.55;;;7.63;;
49101;SDS011;34913;47.520;19.186;2023-04-24T08:29:19;10.05;;;8.30;;
49101;SDS011;34913;47.520;19.186;2023-04-24T08:31:44;10.75;;;8.13;;
49101;SDS011;34913;47.520;19.186;2023-04-24T08:34:10;11.35;;;8.93;;
49101;SDS011;34913;47.520;19.186;2023-04-24T08:36:36;11.00;;;8.15;;
49101;SDS011;34913;47.520;19.186;2023-04-24T08:39:02;11.00;;;8.10;;
49101;SDS011;34913;47.520;19.186;2023-04-24T08:41:27;12.55;;;8.13;;
49101;SDS011;34913;47.520;19.186;2023-04-24T08:43:53;9.50;;;8.15;;
49101;SDS011;34913;47.520;19.186;2023-04-24T08:46:20;9.00;;;7.85;;
49101;SDS011;34913;47.520;19.186;2023-04-24T08:48:45;11.40;;;8.13;;
49101;SDS011;34913;47.520;19.186;2023-04-24T08:51:11;10.60;;;8.00;;
49101;SDS011;34913;47.520;19.186;2023-04-24T08:53:37;8.95;;;8.05;;
49101;SDS011;34913;47.520;19.186;2023-04-24T08:56:03;10.88;;;8.25;;
49101;SDS011;34913;47.520;19.186;2023-04-24T08:58:29;10.05;;;7.22;;
49101;SDS011;34913;47.520;19.186;2023-04-24T09:00:56;9.30;;;7.03;;
49101;SDS011;34913;47.520;19.186;2023-04-24T09:03:22;10.88;;;7.30;;
49101;SDS011;34913;47.520;19.186;2023-04-24T09:05:48;8.23;;;6.82;;
49101;SDS011;34913;47.520;19.186;2023-04-24T09:08:16;8.40;;;6.47;;
49101;SDS011;34913;47.520;19.186;2023-04-24T09:10:42;9.00;;;7.07;;
49101;SDS011;34913;47.520;19.186;2023-04-24T09:13:08;7.85;;;6.75;;
49101;SDS011;34913;47.520;19.186;2023-04-24T09:15:35;8.20;;;6.80;;
49101;SDS011;34913;47.520;19.186;2023-04-24T09:18:01;7.82;;;5.93;;
49101;SDS011;34913;47.520;19.186;2023-04-24T09:20:27;7.22;;;5.20;;
49101;SDS011;34913;47.520;19.186;2023-04-24T09:22:53;7.05;;;5.88;;
49101;SDS011;34913;47.520;19.186;2023-04-24T09:25:20;5.72;;;5.13;;
49101;SDS011;34913;47.520;19.186;2023-04-24T09:27:46;7.65;;;4.93;;
49101;SDS011;34913;47.520;19.186;2023-04-24T09:30:12;8.48;;;5.07;;
49101;SDS011;34913;47.520;19.186;2023-04-24T09:32:38;7.93;;;4.72;;
49101;SDS011;34913;47.520;19.186;2023-04-24T09:37:36;7.22;;;5.28;;
49101;SDS011;34913;47.520;19.186;2023-04-24T09:45:21;6.22;;;5.07;;
49101;SDS011;34913;47.520;19.186;2023-04-24T09:47:52;6.05;;;4.30;;
49101;SDS011;34913;47.520;19.186;2023-04-24T09:50:18;6.22;;;3.88;;
49101;SDS011;34913;47.520;19.186;2023-04-24T09:52:45;6.18;;;4.40;;
49101;SDS011;34913;47.520;19.186;2023-04-24T09:55:13;11.48;;;4.20;;
49101;SDS011;34913;47.520;19.186;2023-04-24T09:57:47;6.88;;;4.93;;
49101;SDS011;34913;47.520;19.186;2023-04-24T10:00:17;5.30;;;4.53;;
49101;SDS011;34913;47.520;19.186;2023-04-24T10:02:57;5.55;;;4.80;;
49101;SDS011;34913;47.520;19.186;2023-04-24T10:05:27;5.50;;;5.00;;
49101;SDS011;34913;47.520;19.186;2023-04-24T10:07:57;8.18;;;4.35;;
49101;SDS011;34913;47.520;19.186;2023-04-24T10:10:34;4.82;;;3.42;;
49101;SDS011;34913;47.520;19.186;2023-04-24T10:13:03;7.25;;;3.42;;
49101;SDS011;34913;47.520;19.186;2023-04-24T10:15:29;4.80;;;3.55;;
49101;SDS011;34913;47.520;19.186;2023-04-24T10:17:55;4.60;;;3.33;;
49101;SDS011;34913;47.520;19.186;2023-04-24T10:20:24;4.55;;;3.50;;
49101;SDS011;34913;47.520;19.186;2023-04-24T10:22:51;4.38;;;3.47;;
49101;SDS011;34913;47.520;19.186;2023-04-24T10:25:19;4.85;;;3.83;;
49101;SDS011;34913;47.520;19.186;2023-04-24T10:27:46;5.22;;;3.85;;
49101;SDS011;34913;47.520;19.186;2023-04-24T10:30:12;5.15;;;3.90;;
49101;SDS011;34913;47.520;19.186;2023-04-24T10:32:39;3.88;;;3.35;;
49101;SDS011;34913;47.520;19.186;2023-04-24T10:35:05;7.50;;;3.47;;
49101;SDS011;34913;47.520;19.186;2023-04-24T10:40:32;6.80;;;4.38;;
49101;SDS011;34913;47.520;19.186;2023-04-24T10:42:59;5.75;;;4.28;;
49101;SDS011;34913;47.520;19.186;2023-04-24T10:45:27;7.78;;;4.35;;
49101;SDS011;34913;47.520;19.186;2023-04-24T10:50:22;5.60;;;3.90;;
49101;SDS011;34913;47.520;19.186;2023-04-24T10:52:48;5.43;;;3.80;;
49101;SDS011;34913;47.520;19.186;2023-04-24T10:58:07;5.47;;;4.28;;
49101;SDS011;34913;47.520;19.186;2023-04-24T11:00:32;6.05;;;4.07;;
49101;SDS011;34913;47.520;19.186;2023-04-24T11:03:04;5.50;;;4.30;;
49101;SDS011;34913;47.520;19.186;2023-04-24T11:05:50;6.63;;;4.20;;
49101;SDS011;34913;47.520;19.186;2023-04-24T11:08:25;7.65;;;4.68;;
49101;SDS011;34913;47.520;19.186;2023-04-24T11:11:10;8.35;;;5.25;;
49101;SDS011;34913;47.520;19.186;2023-04-24T11:19:00;7.68;;;4.65;;
49101;SDS011;34913;47.520;19.186;2023-04-24T11:32:26;6.63;;;4.50;;
49101;SDS011;34913;47.520;19.186;2023-04-24T11:37:26;7.47;;;4.90;;
49101;SDS011;34913;47.520;19.186;2023-04-24T11:40:01;8.27;;;5.07;;
49101;SDS011;34913;47.520;19.186;2023-04-24T11:42:29;5.93;;;5.32;;
49101;SDS011;34913;47.520;19.186;2023-04-24T11:44:59;9.00;;;5.75;;
49101;SDS011;34913;47.520;19.186;2023-04-24T11:47:31;8.05;;;5.30;;
49101;SDS011;34913;47.520;19.186;2023-04-24T11:49:58;6.78;;;5.05;;
49101;SDS011;34913;47.520;19.186;2023-04-24T11:52:25;9.45;;;5.40;;
49101;SDS011;34913;47.520;19.186;2023-04-24T11:54:51;6.68;;;5.05;;
49101;SDS011;34913;47.520;19.186;2023-04-24T11:57:21;6.55;;;5.45;;
49101;SDS011;34913;47.520;19.186;2023-04-24T11:59:47;6.47;;;5.43;;
49101;SDS011;34913;47.520;19.186;2023-04-24T12:02:23;9.15;;;6.13;;
49101;SDS011;34913;47.520;19.186;2023-04-24T12:04:49;9.05;;;6.60;;
49101;SDS011;34913;47.520;19.186;2023-04-24T12:07:15;9.25;;;6.05;;
49101;SDS011;34913;47.520;19.186;2023-04-24T12:09:41;7.45;;;6.15;;
49101;SDS011;34913;47.520;19.186;2023-04-24T12:12:08;8.70;;;6.35;;
49101;SDS011;34913;47.520;19.186;2023-04-24T12:14:41;8.45;;;5.88;;
49101;SDS011;34913;47.520;19.186;2023-04-24T12:17:12;9.07;;;6.60;;
49101;SDS011;34913;47.520;19.186;2023-04-24T12:19:37;10.30;;;6.90;;
49101;SDS011;34913;47.520;19.186;2023-04-24T12:22:04;9.77;;;6.70;;
49101;SDS011;34913;47.520;19.186;2023-04-24T12:24:31;8.90;;;6.53;;
49101;SDS011;34913;47.520;19.186;2023-04-24T12:26:57;6.57;;;5.57;;
49101;SDS011;34913;47.520;19.186;2023-04-24T12:29:23;6.88;;;5.00;;
49101;SDS011;34913;47.520;19.186;2023-04-24T12:31:50;5.47;;;4.00;;
49101;SDS011;34913;47.520;19.186;2023-04-24T12:34:23;5.80;;;3.00;;
49101;SDS011;34913;47.520;19.186;2023-04-24T12:36:50;5.00;;;2.95;;
49101;SDS011;34913;47.520;19.186;2023-04-24T12:39:19;5.00;;;3.55;;
49101;SDS011;34913;47.520;19.186;2023-04-24T12:41:55;5.90;;;4.05;;
49101;SDS011;34913;47.520;19.186;2023-04-24T12:44:43;6.90;;;4.70;;
49101;SDS011;34913;47.520;19.186;2023-04-24T12:47:07;11.77;;;6.30;;
49101;SDS011;34913;47.520;19.186;2023-04-24T12:49:34;8.77;;;4.82;;
49101;SDS011;34913;47.520;19.186;2023-04-24T12:51:59;7.65;;;5.45;;
49101;SDS011;34913;47.520;19.186;2023-04-24T12:54:25;7.60;;;4.85;;
49101;SDS011;34913;47.520;19.186;2023-04-24T12:56:50;10.48;;;5.68;;
49101;SDS011;34913;47.520;19.186;2023-04-24T12:59:16;6.43;;;4.95;;
49101;SDS011;34913;47.520;19.186;2023-04-24T13:01:41;7.30;;;4.68;;
49101;SDS011;34913;47.520;19.186;2023-04-24T13:04:07;8.82;;;4.30;;
49101;SDS011;34913;47.520;19.186;2023-04-24T13:06:32;5.03;;;3.88;;
49101;SDS011;34913;47.520;19.186;2023-04-24T13:08:57;5.00;;;3.67;;
49101;SDS011;34913;47.520;19.186;2023-04-24T13:11:23;6.30;;;4.00;;
49101;SDS011;34913;47.520;19.186;2023-04-24T13:13:49;4.28;;;3.70;;
49101;SDS011;34913;47.520;19.186;2023-04-24T13:16:15;5.85;;;3.60;;
49101;SDS011;34913;47.520;19.186;2023-04-24T13:18:40;8.48;;;3.55;;
49101;SDS011;34913;47.520;19.186;2023-04-24T13:21:06;5.57;;;3.28;;
49101;SDS011;34913;47.520;19.186;2023-04-24T13:23:31;7.30;;;3.10;;
49101;SDS011;34913;47.520;19.186;2023-04-24T13:25:57;8.80;;;3.20;;
49101;SDS011;34913;47.520;19.186;2023-04-24T13:28:22;5.72;;;2.95;;
49101;SDS011;34913;47.520;19.186;2023-04-24T13:30:49;5.80;;;3.20;;
49101;SDS011;34913;47.520;19.186;2023-04-24T13:33:15;4.50;;;2.90;;
49101;SDS011;34913;47.520;19.186;2023-04-24T13:35:40;3.33;;;2.90;;
49101;SDS011;34913;47.520;19.186;2023-04-24T13:38:06;3.58;;;2.78;;
49101;SDS011;34913;47.520;19.186;2023-04-24T13:40:31;5.57;;;3.30;;
49101;SDS011;34913;47.520;19.186;2023-04-24T13:42:57;4.22;;;3.00;;
49101;SDS011;34913;47.520;19.186;2023-04-24T13:45:22;7.03;;;3.30;;
49101;SDS011;34913;47.520;19.186;2023-04-24T13:47:48;3.78;;;2.92;;
49101;SDS011;34913;47.520;19.186;2023-04-24T13:50:13;3.60;;;2.78;;
49101;SDS011;34913;47.520;19.186;2023-04-24T13:52:39;6.28;;;2.80;;
49101;SDS011;34913;47.520;19.186;2023-04-24T13:55:05;4.20;;;2.90;;
49101;SDS011;34913;47.520;19.186;2023-04-24T13:57:31;5.97;;;2.80;;
49101;SDS011;34913;47.520;19.186;2023-04-24T13:59:57;4.80;;;3.13;;
49101;SDS011;34913;47.520;19.186;2023-04-24T14:02:26;3.53;;;3.00;;
49101;SDS011;34913;47.520;19.186;2023-04-24T14:04:52;3.67;;;3.15;;
49101;SDS011;34913;47.520;19.186;2023-04-24T14:07:17;3.63;;;3.30;;
49101;SDS011;34913;47.520;19.186;2023-04-24T14:09:42;3.50;;;3.20;;
49101;SDS011;34913;47.520;19.186;2023-04-24T14:12:08;7.45;;;3.60;;
49101;SDS011;34913;47.520;19.186;2023-04-24T14:14:33;4.88;;;3.50;;
49101;SDS011;34913;47.520;19.186;2023-04-24T14:16:59;5.50;;;3.25;;
49101;SDS011;34913;47.520;19.186;2023-04-24T14:19:25;5.25;;;3.42;;
49101;SDS011;34913;47.520;19.186;2023-04-24T14:21:50;4.82;;;3.30;;
49101;SDS011;34913;47.520;19.186;2023-04-24T14:24:16;4.22;;;3.42;;
49101;SDS011;34913;47.520;19.186;2023-04-24T14:26:41;5.60;;;3.58;;
49101;SDS011;34913;47.520;19.186;2023-04-24T14:29:07;6.13;;;3.47;;
49101;SDS011;34913;47.520;19.186;2023-04-24T14:31:32;5.43;;;4.00;;
49101;SDS011;34913;47.520;19.186;2023-04-24T14:33:57;6.93;;;4.50;;
49101;SDS011;34913;47.520;19.186;2023-04-24T14:36:23;6.10;;;4.03;;
49101;SDS011;34913;47.520;19.186;2023-04-24T14:38:49;7.88;;;4.45;;
49101;SDS011;34913;47.520;19.186;2023-04-24T14:41:14;7.47;;;4.50;;
49101;SDS011;34913;47.520;19.186;2023-04-24T14:43:40;7.18;;;5.10;;
49101;SDS011;34913;47.520;19.186;2023-04-24T14:46:06;6.82;;;4.63;;
49101;SDS011;34913;47.520;19.186;2023-04-24T14:48:31;5.70;;;4.55;;
49101;SDS011;34913;47.520;19.186;2023-04-24T14:50:57;6.15;;;4.70;;
49101;SDS011;34913;47.520;19.186;2023-04-24T14:53:23;7.47;;;4.88;;
49101;SDS011;34913;47.520;19.186;2023-04-24T14:55:48;6.00;;;4.88;;
49101;SDS011;34913;47.520;19.186;2023-04-24T14:58:14;8.10;;;5.15;;
49101;SDS011;34913;47.520;19.186;2023-04-24T15:00:39;6.82;;;5.15;;